Time;durP1;ratioP1;P1;durP2;ratioP2;P2;SDS_P1;SDS_P2;PMS_P1;PMS_P2;Temp;Humidity;BMP_temperature;BMP_pressure;BME280_temperature;BME280_humidity;BME280_pressure;Samples;Min_cycle;Max_cycle;Signal;HPM_P1;HPM_P2
2022/11/02 00:01:47;;;;;;;27.00;4.57;;;;;;;;;;5051743;28;20239;-83
2022/11/02 00:04:14;;;;;;;22.50;4.47;;;;;;;;;;5051061;28;20211;-83
2022/11/02 00:06:42;;;;;;;21.83;4.47;;;;;;;;;;5051672;28;20287;-83
2022/11/02 00:09:10;;;;;;;20.93;4.97;;;;;;;;;;5051164;28;20232;-82
2022/11/02 00:11:39;;;;;;;22.00;4.77;;;;;;;;;;5051070;28;20251;-82
2022/11/02 00:14:06;;;;;;;26.60;5.33;;;;;;;;;;5051305;28;20269;-82
2022/11/02 00:16:34;;;;;;;23.13;4.50;;;;;;;;;;5051651;28;20238;-82
2022/11/02 00:19:02;;;;;;;23.97;4.70;;;;;;;;;;5051888;28;20281;-82
2022/11/02 00:21:29;;;;;;;20.40;5.17;;;;;;;;;;5051317;28;20286;-82
2022/11/02 00:23:56;;;;;;;24.67;4.80;;;;;;;;;;5051954;28;20246;-83
2022/11/02 00:26:24;;;;;;;18.93;4.47;;;;;;;;;;5051440;28;20283;-82
2022/11/02 00:28:53;;;;;;;26.73;5.00;;;;;;;;;;5051651;28;20654;-82
2022/11/02 00:31:20;;;;;;;30.43;5.03;;;;;;;;;;5050973;28;20261;-83
2022/11/02 00:33:47;;;;;;;26.47;5.20;;;;;;;;;;5051408;28;20290;-82
2022/11/02 00:36:16;;;;;;;24.47;4.93;;;;;;;;;;5052396;28;20231;-82
2022/11/02 00:38:43;;;;;;;23.23;4.87;;;;;;;;;;5051450;28;20312;-83
2022/11/02 00:41:11;;;;;;;29.70;4.57;;;;;;;;;;5052204;28;20823;-82
2022/11/02 00:43:38;;;;;;;17.40;4.53;;;;;;;;;;5052213;28;20204;-82
2022/11/02 00:46:07;;;;;;;30.67;4.90;;;;;;;;;;5055942;28;20235;-82
2022/11/02 00:48:35;;;;;;;24.23;4.93;;;;;;;;;;5055549;28;20291;-83
2022/11/02 00:51:02;;;;;;;20.23;4.67;;;;;;;;;;5055082;28;20220;-82
2022/11/02 00:53:29;;;;;;;21.73;4.67;;;;;;;;;;5055275;28;20235;-82
2022/11/02 00:55:56;;;;;;;24.63;4.40;;;;;;;;;;5054944;28;20242;-83
2022/11/02 00:58:23;;;;;;;18.00;4.30;;;;;;;;;;5055921;28;20196;-82
2022/11/02 01:00:51;;;;;;;20.17;3.90;;;;;;;;;;5055953;28;20284;-82
2022/11/02 01:03:20;;;;;;;18.87;3.63;;;;;;;;;;5055161;28;20283;-82
2022/11/02 01:05:47;;;;;;;23.50;3.53;;;;;;;;;;5055812;28;20629;-82
2022/11/02 01:08:14;;;;;;;24.20;3.77;;;;;;;;;;5055404;28;20246;-83
2022/11/02 01:10:41;;;;;;;25.27;3.97;;;;;;;;;;5062005;28;20809;-83
2022/11/02 01:13:08;;;;;;;20.83;3.43;;;;;;;;;;5075034;28;20782;-82
2022/11/02 01:15:37;;;;;;;21.50;3.37;;;;;;;;;;5075786;28;20286;-82
2022/11/02 01:18:04;;;;;;;18.20;3.30;;;;;;;;;;5075118;28;20235;-82
2022/11/02 01:20:33;;;;;;;27.17;3.67;;;;;;;;;;5058128;28;20199;-82
2022/11/02 01:23:00;;;;;;;29.00;4.13;;;;;;;;;;5053275;28;20223;-82
2022/11/02 01:25:27;;;;;;;18.17;3.07;;;;;;;;;;5053813;28;20732;-82
2022/11/02 01:27:55;;;;;;;20.97;3.23;;;;;;;;;;5054716;28;20759;-83
2022/11/02 01:30:22;;;;;;;22.83;3.30;;;;;;;;;;5053499;28;20251;-82
2022/11/02 01:32:49;;;;;;;22.77;3.40;;;;;;;;;;5054553;28;20239;-82
2022/11/02 01:35:16;;;;;;;19.10;3.57;;;;;;;;;;5054818;28;20298;-83
2022/11/02 01:37:45;;;;;;;19.23;3.53;;;;;;;;;;5054338;28;20287;-82
2022/11/02 01:40:12;;;;;;;17.80;3.63;;;;;;;;;;5054663;28;20250;-83
2022/11/02 01:42:39;;;;;;;21.13;3.33;;;;;;;;;;5054182;28;20204;-82
2022/11/02 01:45:07;;;;;;;18.13;3.50;;;;;;;;;;5054063;28;20238;-83
2022/11/02 01:47:38;;;;;;;22.77;3.43;;;;;;;;;;5053397;28;20291;-82
2022/11/02 01:50:07;;;;;;;25.27;3.67;;;;;;;;;;5054448;28;20236;-83
2022/11/02 01:52:35;;;;;;;17.10;3.10;;;;;;;;;;5053883;28;20258;-82
2022/11/02 01:55:07;;;;;;;15.10;2.97;;;;;;;;;;5054107;28;20279;-82
2022/11/02 01:57:35;;;;;;;19.10;3.13;;;;;;;;;;5054313;28;20629;-83
2022/11/02 02:00:04;;;;;;;24.30;3.63;;;;;;;;;;5053871;28;20243;-83
2022/11/02 02:02:33;;;;;;;26.60;3.17;;;;;;;;;;5053865;28;20199;-83
2022/11/02 02:05:03;;;;;;;17.20;3.43;;;;;;;;;;5053712;28;20283;-84
2022/11/02 02:07:31;;;;;;;18.60;3.07;;;;;;;;;;5053666;28;20644;-83
2022/11/02 02:10:01;;;;;;;22.37;3.23;;;;;;;;;;5054220;28;20298;-83
2022/11/02 02:12:33;;;;;;;18.50;2.90;;;;;;;;;;5054019;28;20258;-82
2022/11/02 02:15:00;;;;;;;19.33;3.20;;;;;;;;;;5053934;28;20238;-83
2022/11/02 02:17:32;;;;;;;22.83;3.13;;;;;;;;;;5053967;28;20306;-82
2022/11/02 02:20:02;;;;;;;25.40;3.20;;;;;;;;;;5053816;28;20235;-83
2022/11/02 02:22:47;;;;;;;18.73;3.30;;;;;;;;;;5053378;28;20275;-82
2022/11/02 02:25:24;;;;;;;17.17;3.03;;;;;;;;;;5053121;28;20235;-82
2022/11/02 02:28:02;;;;;;;20.93;2.77;;;;;;;;;;5049462;28;20765;-82
2022/11/02 02:30:31;;;;;;;25.97;3.73;;;;;;;;;;5053428;28;20647;-82
2022/11/02 02:33:02;;;;;;;18.63;2.90;;;;;;;;;;5053261;28;20290;-83
2022/11/02 02:35:33;;;;;;;19.87;3.07;;;;;;;;;;5053810;28;20283;-82
2022/11/02 02:38:01;;;;;;;24.40;3.43;;;;;;;;;;5051609;28;20319;-82
2022/11/02 02:40:34;;;;;;;21.07;3.70;;;;;;;;;;5053356;28;20286;-82
2022/11/02 02:43:05;;;;;;;20.97;2.97;;;;;;;;;;5053393;28;20254;-82
2022/11/02 02:45:34;;;;;;;18.73;2.70;;;;;;;;;;5053304;28;20200;-83
2022/11/02 02:48:07;;;;;;;23.70;3.30;;;;;;;;;;5033920;28;20283;-82
2022/11/02 02:50:36;;;;;;;22.10;2.97;;;;;;;;;;5046486;28;20235;-83
2022/11/02 02:53:04;;;;;;;17.43;3.10;;;;;;;;;;5053234;28;20246;-82
2022/11/02 02:55:34;;;;;;;23.13;3.50;;;;;;;;;;5053166;28;20223;-82
2022/11/02 02:58:04;;;;;;;25.53;3.43;;;;;;;;;;5052465;28;20295;-82
2022/11/02 03:00:34;;;;;;;20.77;3.20;;;;;;;;;;5052923;28;20292;-82
2022/11/02 03:03:04;;;;;;;26.10;3.43;;;;;;;;;;5053241;28;20257;-83
2022/11/02 03:05:35;;;;;;;19.00;3.40;;;;;;;;;;5052884;28;20199;-82
2022/11/02 03:08:06;;;;;;;22.53;3.57;;;;;;;;;;5052511;28;20679;-82
2022/11/02 03:10:38;;;;;;;19.23;3.23;;;;;;;;;;5052262;28;20227;-82
2022/11/02 03:13:17;;;;;;;22.87;3.13;;;;;;;;;;5052767;28;20357;-82
2022/11/02 03:15:47;;;;;;;18.87;2.90;;;;;;;;;;5052486;28;20231;-83
2022/11/02 03:18:18;;;;;;;21.53;2.93;;;;;;;;;;5052689;28;20290;-83
2022/11/02 03:20:54;;;;;;;24.40;3.10;;;;;;;;;;5052829;28;20203;-83
2022/11/02 03:23:24;;;;;;;26.97;3.20;;;;;;;;;;5052762;28;20199;-83
2022/11/02 03:25:54;;;;;;;17.50;2.90;;;;;;;;;;5052743;28;20290;-83
2022/11/02 03:28:27;;;;;;;19.83;3.47;;;;;;;;;;5052148;28;20639;-83
2022/11/02 03:30:57;;;;;;;15.53;2.73;;;;;;;;;;5052777;28;20333;-83
2022/11/02 03:33:27;;;;;;;20.30;3.00;;;;;;;;;;5052508;28;20362;-83
2022/11/02 03:35:57;;;;;;;19.87;2.93;;;;;;;;;;5052410;28;20290;-83
2022/11/02 03:38:25;;;;;;;20.10;2.93;;;;;;;;;;5052820;28;20275;-83
2022/11/02 03:40:55;;;;;;;22.17;3.10;;;;;;;;;;5056961;28;20291;-83
2022/11/02 03:43:24;;;;;;;15.47;2.90;;;;;;;;;;5052124;28;20282;-83
2022/11/02 03:45:53;;;;;;;12.73;2.63;;;;;;;;;;5052187;28;20289;-83
2022/11/02 03:48:21;;;;;;;18.63;2.40;;;;;;;;;;5052256;28;20210;-83
2022/11/02 03:50:50;;;;;;;16.73;2.93;;;;;;;;;;5051831;28;20695;-83
2022/11/02 03:53:19;;;;;;;17.97;2.57;;;;;;;;;;5051999;28;20281;-82
2022/11/02 03:55:48;;;;;;;17.60;3.00;;;;;;;;;;5052304;28;20242;-82
2022/11/02 03:58:16;;;;;;;16.03;3.10;;;;;;;;;;5051822;28;20242;-83
2022/11/02 04:00:48;;;;;;;14.27;2.50;;;;;;;;;;5051970;28;20231;-83
2022/11/02 04:03:15;;;;;;;16.17;2.60;;;;;;;;;;5051970;28;20231;-83
2022/11/02 04:05:43;;;;;;;15.20;2.57;;;;;;;;;;5052446;28;20283;-82
2022/11/02 04:08:20;;;;;;;15.37;2.17;;;;;;;;;;5051978;28;20286;-83
2022/11/02 04:16:19;;;;;;;14.53;2.20;;;;;;;;;;5052086;28;20197;-83
2022/11/02 04:21:31;;;;;;;15.17;2.70;;;;;;;;;;5056052;28;20677;-83
2022/11/02 04:26:43;;;;;;;16.67;2.47;;;;;;;;;;5055233;28;20299;-83
2022/11/02 04:29:10;;;;;;;21.27;2.43;;;;;;;;;;5055084;28;20750;-83
2022/11/02 04:31:39;;;;;;;12.87;1.93;;;;;;;;;;5055502;28;20255;-83
2022/11/02 04:34:05;;;;;;;13.70;2.40;;;;;;;;;;5056320;28;20233;-83
2022/11/02 04:36:33;;;;;;;22.03;2.77;;;;;;;;;;5055878;28;20239;-82
2022/11/02 04:38:59;;;;;;;15.97;2.60;;;;;;;;;;5055025;28;20322;-83
2022/11/02 04:41:42;;;;;;;15.77;2.73;;;;;;;;;;5069247;28;20281;-83
2022/11/02 04:44:13;;;;;;;17.30;2.63;;;;;;;;;;5061765;28;20239;-83
2022/11/02 04:46:42;;;;;;;18.57;3.10;;;;;;;;;;5054758;28;20302;-82
2022/11/02 04:49:10;;;;;;;19.10;2.77;;;;;;;;;;5054591;28;20231;-81
2022/11/02 04:51:39;;;;;;;14.73;2.90;;;;;;;;;;5053948;28;20223;-83
2022/11/02 04:54:06;;;;;;;16.73;2.47;;;;;;;;;;5053930;28;20202;-83
2022/11/02 04:56:33;;;;;;;22.57;2.60;;;;;;;;;;5054349;28;20260;-83
2022/11/02 04:59:01;;;;;;;18.97;2.93;;;;;;;;;;5054185;28;20303;-83
2022/11/02 05:01:29;;;;;;;19.27;2.77;;;;;;;;;;5050768;28;20236;-83
2022/11/02 05:03:57;;;;;;;19.67;2.80;;;;;;;;;;5052761;28;20236;-83
2022/11/02 05:06:25;;;;;;;14.10;2.50;;;;;;;;;;5053744;28;20243;-83
2022/11/02 05:08:53;;;;;;;17.37;2.77;;;;;;;;;;5054171;28;20210;-83
2022/11/02 05:11:20;;;;;;;14.33;2.97;;;;;;;;;;5053688;28;20224;-83
2022/11/02 05:13:47;;;;;;;19.50;2.87;;;;;;;;;;5054310;28;20291;-82
2022/11/02 05:16:16;;;;;;;20.13;2.93;;;;;;;;;;5053611;28;20281;-82
2022/11/02 05:18:43;;;;;;;12.97;2.20;;;;;;;;;;5053540;28;20742;-83
2022/11/02 05:21:12;;;;;;;23.00;3.43;;;;;;;;;;5053683;28;20282;-82
2022/11/02 05:23:43;;;;;;;17.23;2.67;;;;;;;;;;5053609;28;20285;-83
2022/11/02 05:26:11;;;;;;;18.10;2.77;;;;;;;;;;5053210;28;20302;-83
2022/11/02 05:28:41;;;;;;;22.83;3.30;;;;;;;;;;5053412;28;20308;-83
2022/11/02 05:31:08;;;;;;;21.40;3.67;;;;;;;;;;5053030;28;20294;-83
2022/11/02 05:33:35;;;;;;;23.43;3.40;;;;;;;;;;5053684;28;20229;-83
2022/11/02 05:36:03;;;;;;;26.23;3.73;;;;;;;;;;5052902;28;20673;-83
2022/11/02 05:38:31;;;;;;;18.60;3.00;;;;;;;;;;5007534;28;1287213;-83
2022/11/02 05:40:59;;;;;;;20.77;3.23;;;;;;;;;;5053545;28;20754;-83
2022/11/02 05:43:27;;;;;;;19.33;2.93;;;;;;;;;;5053851;28;20640;-83
2022/11/02 05:45:55;;;;;;;25.80;3.03;;;;;;;;;;5054316;28;20238;-83
2022/11/02 05:48:22;;;;;;;21.10;3.17;;;;;;;;;;5053926;28;20247;-82
2022/11/02 05:50:50;;;;;;;16.67;2.97;;;;;;;;;;5054427;28;20285;-83
2022/11/02 05:53:17;;;;;;;24.73;3.27;;;;;;;;;;5054259;28;20649;-83
2022/11/02 05:55:46;;;;;;;18.83;2.67;;;;;;;;;;5054367;28;20208;-83
2022/11/02 05:58:16;;;;;;;27.50;3.27;;;;;;;;;;5054327;28;20667;-83
2022/11/02 06:00:43;;;;;;;26.77;3.77;;;;;;;;;;5053901;28;20274;-82
2022/11/02 06:03:10;;;;;;;15.57;3.03;;;;;;;;;;5053324;28;20678;-83
2022/11/02 06:05:38;;;;;;;24.90;3.27;;;;;;;;;;5053384;28;20246;-85
2022/11/02 06:08:05;;;;;;;26.80;3.03;;;;;;;;;;5052588;28;20432;-85
2022/11/02 06:10:32;;;;;;;22.30;3.37;;;;;;;;;;5054116;28;20674;-86
2022/11/02 06:13:02;;;;;;;25.87;3.47;;;;;;;;;;5054014;28;20305;-85
2022/11/02 06:15:30;;;;;;;27.60;3.90;;;;;;;;;;5053947;28;20771;-85
2022/11/02 06:17:57;;;;;;;18.47;2.40;;;;;;;;;;5053772;28;20203;-84
2022/11/02 06:20:24;;;;;;;24.27;2.97;;;;;;;;;;5054420;28;20332;-83
2022/11/02 06:22:52;;;;;;;19.43;3.13;;;;;;;;;;5053609;28;20222;-85
2022/11/02 06:25:19;;;;;;;25.93;2.93;;;;;;;;;;5054302;28;20232;-84
2022/11/02 06:27:51;;;;;;;19.37;3.17;;;;;;;;;;5053528;28;20230;-86
2022/11/02 06:30:20;;;;;;;22.37;3.20;;;;;;;;;;5052502;28;20703;-85
2022/11/02 06:32:48;;;;;;;19.17;2.67;;;;;;;;;;5052563;28;20313;-85
2022/11/02 06:35:16;;;;;;;22.70;3.00;;;;;;;;;;5052330;28;20231;-84
2022/11/02 06:37:43;;;;;;;30.57;3.70;;;;;;;;;;5049673;28;20206;-84
2022/11/02 06:40:11;;;;;;;18.60;3.10;;;;;;;;;;5052144;28;20237;-84
2022/11/02 06:42:38;;;;;;;18.17;2.90;;;;;;;;;;5052005;28;20299;-85
2022/11/02 06:45:06;;;;;;;22.97;3.30;;;;;;;;;;5052242;28;20227;-85
2022/11/02 06:47:35;;;;;;;20.87;3.40;;;;;;;;;;5052599;28;20727;-84
2022/11/02 06:50:03;;;;;;;21.63;2.70;;;;;;;;;;5052951;28;20684;-85
2022/11/02 06:52:30;;;;;;;16.97;2.67;;;;;;;;;;5052776;28;20223;-84
2022/11/02 06:54:57;;;;;;;17.67;3.20;;;;;;;;;;5052629;28;20296;-83
2022/11/02 06:57:25;;;;;;;21.33;3.00;;;;;;;;;;5052734;28;20687;-83
2022/11/02 06:59:52;;;;;;;19.23;2.90;;;;;;;;;;5052922;28;20232;-83
2022/11/02 07:02:20;;;;;;;20.60;2.83;;;;;;;;;;5052887;28;20233;-83
2022/11/02 07:04:49;;;;;;;21.90;3.00;;;;;;;;;;5052234;28;20231;-83
2022/11/02 07:07:16;;;;;;;20.73;2.93;;;;;;;;;;5053131;28;20204;-83
2022/11/02 07:09:44;;;;;;;18.70;3.60;;;;;;;;;;5052525;28;20694;-83
2022/11/02 07:12:11;;;;;;;25.33;3.20;;;;;;;;;;5052976;28;20255;-83
2022/11/02 07:14:38;;;;;;;19.87;4.17;;;;;;;;;;5052544;28;20646;-83
2022/11/02 07:17:05;;;;;;;18.40;3.40;;;;;;;;;;5052902;28;20243;-84
2022/11/02 07:19:33;;;;;;;19.77;3.30;;;;;;;;;;5052108;28;20254;-83
2022/11/02 07:22:01;;;;;;;20.80;4.00;;;;;;;;;;5052363;28;20253;-84
2022/11/02 07:24:29;;;;;;;23.50;3.50;;;;;;;;;;5052695;28;20227;-84
2022/11/02 07:26:56;;;;;;;27.87;3.93;;;;;;;;;;5052559;28;20200;-84
2022/11/02 07:29:23;;;;;;;24.53;3.10;;;;;;;;;;5052739;28;20308;-84
2022/11/02 07:31:50;;;;;;;15.70;3.00;;;;;;;;;;5053017;28;20656;-85
2022/11/02 07:34:18;;;;;;;23.10;3.60;;;;;;;;;;5052172;28;20231;-86
2022/11/02 07:36:45;;;;;;;19.03;2.87;;;;;;;;;;5052904;28;20223;-86
2022/11/02 07:39:13;;;;;;;21.30;3.33;;;;;;;;;;5051416;28;20310;-85
2022/11/02 07:41:43;;;;;;;15.17;2.83;;;;;;;;;;5052035;28;20231;-85
2022/11/02 07:44:11;;;;;;;16.17;2.83;;;;;;;;;;5050992;28;20261;-85
2022/11/02 07:46:38;;;;;;;11.77;2.90;;;;;;;;;;5052195;28;20264;-86
2022/11/02 07:49:05;;;;;;;17.37;3.53;;;;;;;;;;5052466;28;20291;-86
2022/11/02 07:51:32;;;;;;;20.00;3.20;;;;;;;;;;5051443;28;20231;-86
2022/11/02 07:54:01;;;;;;;14.77;2.67;;;;;;;;;;5051807;28;20273;-86
2022/11/02 07:56:30;;;;;;;18.77;2.90;;;;;;;;;;5052295;28;20208;-85
2022/11/02 07:58:57;;;;;;;20.47;3.57;;;;;;;;;;5052247;28;20716;-86
2022/11/02 08:01:24;;;;;;;17.17;3.53;;;;;;;;;;5051909;28;20286;-86
2022/11/02 08:03:53;;;;;;;17.43;3.70;;;;;;;;;;5051901;28;20200;-86
2022/11/02 08:06:20;;;;;;;17.87;3.10;;;;;;;;;;5051668;28;20227;-86
2022/11/02 08:08:48;;;;;;;20.57;3.83;;;;;;;;;;5044133;28;20902;-86
2022/11/02 08:11:15;;;;;;;20.43;4.07;;;;;;;;;;5052009;28;20635;-86
2022/11/02 08:13:44;;;;;;;17.73;3.40;;;;;;;;;;5051926;28;20252;-86
2022/11/02 08:16:11;;;;;;;19.10;3.53;;;;;;;;;;5051633;28;20243;-85
2022/11/02 08:18:39;;;;;;;19.77;2.50;;;;;;;;;;5051185;28;20667;-85
2022/11/02 08:21:07;;;;;;;16.30;3.23;;;;;;;;;;5051370;28;20199;-86
2022/11/02 08:23:34;;;;;;;16.40;3.30;;;;;;;;;;5052149;28;20192;-86
2022/11/02 08:26:01;;;;;;;17.20;3.17;;;;;;;;;;5051199;28;20234;-86
2022/11/02 08:28:31;;;;;;;17.83;2.88;;;;;;;;;;5051656;28;20286;-87
2022/11/02 08:30:59;;;;;;;16.60;3.30;;;;;;;;;;5049683;28;20286;-86
2022/11/02 08:33:27;;;;;;;11.80;2.83;;;;;;;;;;5044612;28;20247;-87
2022/11/02 08:35:54;;;;;;;14.15;3.05;;;;;;;;;;5051874;28;20226;-87
2022/11/02 08:38:22;;;;;;;14.65;3.05;;;;;;;;;;5034802;28;20270;-87
2022/11/02 08:40:50;;;;;;;17.20;3.20;;;;;;;;;;5056936;28;20281;-87
2022/11/02 08:43:18;;;;;;;15.13;2.83;;;;;;;;;;5051583;28;20242;-87
2022/11/02 08:45:45;;;;;;;15.80;3.15;;;;;;;;;;5047078;28;20200;-87
2022/11/02 08:48:14;;;;;;;12.60;2.72;;;;;;;;;;5051645;28;20710;-88
2022/11/02 08:50:41;;;;;;;12.85;3.10;;;;;;;;;;5050906;28;20231;-88
2022/11/02 08:53:09;;;;;;;13.35;2.72;;;;;;;;;;5051357;28;20227;-87
2022/11/02 08:55:36;;;;;;;12.32;2.90;;;;;;;;;;5051706;28;20204;-88
2022/11/02 08:58:03;;;;;;;13.90;2.95;;;;;;;;;;5051741;28;20656;-88
2022/11/02 09:00:31;;;;;;;14.73;2.97;;;;;;;;;;5051239;28;20204;-86
2022/11/02 09:02:59;;;;;;;13.00;3.40;;;;;;;;;;5051059;28;20220;-88
2022/11/02 09:05:28;;;;;;;18.20;3.95;;;;;;;;;;5053320;28;20227;-88
2022/11/02 09:07:56;;;;;;;14.75;3.40;;;;;;;;;;5055738;28;20250;-89
2022/11/02 09:10:23;;;;;;;10.57;3.10;;;;;;;;;;5055724;28;20220;-88
2022/11/02 09:12:52;;;;;;;15.80;3.10;;;;;;;;;;5054760;28;20306;-89
2022/11/02 09:15:20;;;;;;;19.45;4.00;;;;;;;;;;5055345;28;20199;-89
2022/11/02 09:17:48;;;;;;;11.68;2.83;;;;;;;;;;5055259;28;20684;-89
2022/11/02 09:20:15;;;;;;;15.88;3.30;;;;;;;;;;5054421;28;20627;-89
2022/11/02 09:22:44;;;;;;;20.02;3.50;;;;;;;;;;5055106;28;20216;-89
2022/11/02 09:25:12;;;;;;;13.02;3.28;;;;;;;;;;5055180;28;20200;-89
2022/11/02 09:27:39;;;;;;;12.45;3.35;;;;;;;;;;5055392;28;20200;-88
2022/11/02 09:30:07;;;;;;;17.10;3.42;;;;;;;;;;5054975;28;20638;-87
2022/11/02 09:32:35;;;;;;;14.88;3.08;;;;;;;;;;5055055;28;20231;-89
2022/11/02 09:35:03;;;;;;;14.07;3.30;;;;;;;;;;5054716;28;20226;-88
2022/11/02 09:37:30;;;;;;;14.80;3.30;;;;;;;;;;5055142;28;20253;-84
2022/11/02 09:39:59;;;;;;;13.82;2.85;;;;;;;;;;5054784;28;20273;-85
2022/11/02 09:42:31;;;;;;;14.70;3.03;;;;;;;;;;5055100;28;20633;-85
2022/11/02 09:44:59;;;;;;;15.75;3.50;;;;;;;;;;5054409;28;20287;-85
2022/11/02 09:47:28;;;;;;;14.23;3.10;;;;;;;;;;5054831;28;20279;-85
2022/11/02 09:49:56;;;;;;;16.38;3.28;;;;;;;;;;5054704;28;20621;-85
2022/11/02 09:52:25;;;;;;;13.35;3.42;;;;;;;;;;5054434;28;20235;-85
2022/11/02 09:54:54;;;;;;;15.25;3.15;;;;;;;;;;5054970;28;20223;-85
2022/11/02 09:57:28;;;;;;;15.13;2.78;;;;;;;;;;5054892;28;20667;-89
2022/11/02 09:59:56;;;;;;;20.95;3.50;;;;;;;;;;5056739;28;20211;-90
2022/11/02 10:02:26;;;;;;;13.80;2.97;;;;;;;;;;5068307;28;20254;-89
2022/11/02 10:05:01;;;;;;;15.13;2.97;;;;;;;;;;5062910;28;20200;-88
2022/11/02 10:07:33;;;;;;;20.35;3.40;;;;;;;;;;5063361;28;20309;-90
2022/11/02 10:10:03;;;;;;;16.95;3.47;;;;;;;;;;5054890;28;20200;-90
2022/11/02 10:12:38;;;;;;;14.30;3.75;;;;;;;;;;5053854;28;20208;-89
2022/11/02 10:15:09;;;;;;;16.30;3.50;;;;;;;;;;5054644;28;20239;-89
2022/11/02 10:17:37;;;;;;;11.52;2.90;;;;;;;;;;5052158;28;20686;-90
2022/11/02 10:20:07;;;;;;;14.38;2.72;;;;;;;;;;5053948;28;21611;-90
2022/11/02 10:22:37;;;;;;;9.68;2.47;;;;;;;;;;5053859;28;20648;-90
2022/11/02 10:25:05;;;;;;;14.38;3.33;;;;;;;;;;5054413;28;20199;-90
2022/11/02 10:27:37;;;;;;;12.50;2.35;;;;;;;;;;5052855;28;20234;-90
2022/11/02 10:30:06;;;;;;;14.65;3.17;;;;;;;;;;5054416;28;20258;-90
2022/11/02 10:32:35;;;;;;;13.15;2.70;;;;;;;;;;5054058;28;20228;-89
2022/11/02 10:35:04;;;;;;;13.77;3.00;;;;;;;;;;5053250;28;20224;-89
2022/11/02 10:37:37;;;;;;;15.05;3.25;;;;;;;;;;5053390;28;20219;-89
2022/11/02 10:40:09;;;;;;;15.35;2.70;;;;;;;;;;5055262;28;20204;-89
2022/11/02 10:42:46;;;;;;;12.27;2.45;;;;;;;;;;5058425;28;20342;-90
2022/11/02 10:45:22;;;;;;;18.15;3.17;;;;;;;;;;5053897;28;20278;-90
2022/11/02 10:47:59;;;;;;;17.27;2.80;;;;;;;;;;5053331;28;20227;-89
2022/11/02 10:50:33;;;;;;;13.13;2.72;;;;;;;;;;5052663;28;20729;-89
2022/11/02 10:53:01;;;;;;;14.88;3.17;;;;;;;;;;5052686;28;20547;-89
2022/11/02 10:55:31;;;;;;;11.85;2.65;;;;;;;;;;5053206;28;20296;-89
2022/11/02 10:58:01;;;;;;;16.35;2.42;;;;;;;;;;5053311;28;20203;-88
2022/11/02 11:00:31;;;;;;;14.43;2.75;;;;;;;;;;5041754;28;20672;-89
2022/11/02 11:03:06;;;;;;;12.88;2.40;;;;;;;;;;5058231;28;20211;-89
2022/11/02 11:05:34;;;;;;;15.07;2.70;;;;;;;;;;5053143;28;20227;-89
2022/11/02 11:08:01;;;;;;;21.13;3.40;;;;;;;;;;5052968;28;20287;-89
2022/11/02 11:10:31;;;;;;;14.05;2.70;;;;;;;;;;5052373;28;20222;-89
2022/11/02 11:13:00;;;;;;;14.93;2.70;;;;;;;;;;5049347;28;20202;-89
2022/11/02 11:15:29;;;;;;;13.27;2.83;;;;;;;;;;5052707;28;20255;-89
2022/11/02 11:17:57;;;;;;;12.35;3.03;;;;;;;;;;5051873;28;20207;-89
2022/11/02 11:20:31;;;;;;;11.70;2.47;;;;;;;;;;5052179;28;20543;-88
2022/11/02 11:23:09;;;;;;;12.73;2.72;;;;;;;;;;5051940;28;20203;-89
2022/11/02 11:25:36;;;;;;;14.85;3.33;;;;;;;;;;5052569;28;20716;-89
2022/11/02 11:28:21;;;;;;;13.57;2.95;;;;;;;;;;5052743;28;20252;-88
2022/11/02 11:30:51;;;;;;;13.18;3.00;;;;;;;;;;5044272;28;20231;-89
2022/11/02 11:33:21;;;;;;;12.13;2.60;;;;;;;;;;5052765;28;20203;-89
2022/11/02 11:35:50;;;;;;;15.73;2.58;;;;;;;;;;5053202;28;20231;-89
2022/11/02 11:38:18;;;;;;;12.63;2.78;;;;;;;;;;5052428;28;20653;-88
2022/11/02 11:40:52;;;;;;;10.05;2.63;;;;;;;;;;5052810;28;20215;-90
2022/11/02 11:43:22;;;;;;;16.23;2.92;;;;;;;;;;5051510;28;20636;-89
2022/11/02 11:45:56;;;;;;;11.63;2.72;;;;;;;;;;5052162;28;20208;-86
2022/11/02 11:51:29;;;;;;;12.77;2.60;;;;;;;;;;5052022;28;20182;-82
2022/11/02 11:54:06;;;;;;;8.15;2.30;;;;;;;;;;5055599;28;20520;-87
2022/11/02 11:56:35;;;;;;;10.95;2.35;;;;;;;;;;5053194;28;20239;-85
2022/11/02 11:59:03;;;;;;;9.55;2.20;;;;;;;;;;5047700;28;20207;-86
2022/11/02 12:01:38;;;;;;;12.30;2.55;;;;;;;;;;5052076;28;20227;-84
2022/11/02 12:04:06;;;;;;;12.35;2.70;;;;;;;;;;5052980;28;20234;-84
2022/11/02 12:06:37;;;;;;;12.60;2.70;;;;;;;;;;5067059;28;20215;-84
2022/11/02 12:09:07;;;;;;;11.90;2.58;;;;;;;;;;5041498;28;20231;-84
2022/11/02 12:11:39;;;;;;;14.10;2.55;;;;;;;;;;5051718;28;20231;-84
2022/11/02 12:14:15;;;;;;;14.05;2.60;;;;;;;;;;5050465;28;20251;-85
2022/11/02 12:16:54;;;;;;;16.48;3.20;;;;;;;;;;5050876;28;20286;-84
2022/11/02 12:19:31;;;;;;;14.73;2.88;;;;;;;;;;5050066;28;20290;-84
2022/11/02 12:22:02;;;;;;;8.80;2.42;;;;;;;;;;5050293;28;20273;-84
2022/11/02 12:24:48;;;;;;;12.60;2.53;;;;;;;;;;5044023;28;20283;-84
2022/11/02 12:27:22;;;;;;;13.48;2.95;;;;;;;;;;5052105;28;20581;-85
2022/11/02 12:30:04;;;;;;;9.60;2.10;;;;;;;;;;5051925;28;20273;-85
2022/11/02 12:32:48;;;;;;;11.45;2.13;;;;;;;;;;5051436;28;20199;-85
2022/11/02 12:35:33;;;;;;;10.38;2.10;;;;;;;;;;5049979;28;20231;-86
2022/11/02 12:38:07;;;;;;;14.10;2.20;;;;;;;;;;5040811;28;20326;-85
2022/11/02 12:40:42;;;;;;;14.15;2.60;;;;;;;;;;5052517;28;20200;-86
2022/11/02 12:43:16;;;;;;;16.58;2.97;;;;;;;;;;5048803;28;20261;-86
2022/11/02 12:45:48;;;;;;;12.00;2.30;;;;;;;;;;5054852;28;20241;-85
2022/11/02 12:48:19;;;;;;;13.43;2.53;;;;;;;;;;5054686;28;20238;-86
2022/11/02 12:50:53;;;;;;;13.50;2.50;;;;;;;;;;5054721;28;20232;-85
2022/11/02 12:53:35;;;;;;;11.98;2.30;;;;;;;;;;5054989;28;20234;-86
2022/11/02 12:56:04;;;;;;;11.23;2.65;;;;;;;;;;5054269;28;20222;-86
2022/11/02 12:58:34;;;;;;;10.07;2.53;;;;;;;;;;5054683;28;20254;-86
2022/11/02 13:01:06;;;;;;;9.48;2.20;;;;;;;;;;5054336;28;20291;-86
2022/11/02 13:03:36;;;;;;;11.13;2.50;;;;;;;;;;5055541;28;20278;-86
2022/11/02 13:06:06;;;;;;;10.70;2.47;;;;;;;;;;5054962;28;20273;-85
2022/11/02 13:08:39;;;;;;;12.10;2.88;;;;;;;;;;5054951;28;20679;-86
2022/11/02 13:11:12;;;;;;;11.75;2.25;;;;;;;;;;5054448;28;20227;-86
2022/11/02 13:13:42;;;;;;;16.00;2.78;;;;;;;;;;5055085;28;20287;-86
2022/11/02 13:16:11;;;;;;;14.05;2.60;;;;;;;;;;5054789;28;20227;-85
2022/11/02 13:18:41;;;;;;;11.48;2.70;;;;;;;;;;5055760;28;20292;-85
2022/11/02 13:21:10;;;;;;;10.60;2.58;;;;;;;;;;5054249;28;20239;-85
2022/11/02 13:23:39;;;;;;;11.57;3.08;;;;;;;;;;5055012;28;20298;-86
2022/11/02 13:26:09;;;;;;;11.43;2.58;;;;;;;;;;5055121;28;20207;-86
2022/11/02 13:28:41;;;;;;;15.88;2.75;;;;;;;;;;5054678;28;20224;-84
2022/11/02 13:31:10;;;;;;;12.63;2.50;;;;;;;;;;5054297;28;20256;-85
2022/11/02 13:33:42;;;;;;;16.85;3.28;;;;;;;;;;5047249;28;20721;-85
2022/11/02 13:36:09;;;;;;;16.70;3.13;;;;;;;;;;5054386;28;20670;-85
2022/11/02 13:38:40;;;;;;;10.80;2.30;;;;;;;;;;5054791;28;20660;-85
2022/11/02 13:41:19;;;;;;;12.70;2.63;;;;;;;;;;5055617;28;20619;-85
2022/11/02 13:44:00;;;;;;;16.30;2.63;;;;;;;;;;5047530;28;20201;-86
2022/11/02 13:46:36;;;;;;;12.10;2.50;;;;;;;;;;5058549;28;20642;-86
2022/11/02 13:49:06;;;;;;;14.95;3.00;;;;;;;;;;5057527;28;20200;-84
2022/11/02 13:51:36;;;;;;;11.68;2.55;;;;;;;;;;5057353;28;20222;-84
2022/11/02 13:54:05;;;;;;;12.77;2.72;;;;;;;;;;5053227;28;20212;-84
2022/11/02 13:56:35;;;;;;;13.70;2.60;;;;;;;;;;5054155;28;20195;-84
2022/11/02 13:59:04;;;;;;;15.57;2.53;;;;;;;;;;5054574;28;20277;-84
2022/11/02 14:01:35;;;;;;;14.45;2.80;;;;;;;;;;5053626;28;20231;-84
2022/11/02 14:04:05;;;;;;;14.48;2.92;;;;;;;;;;5053274;28;20663;-84
2022/11/02 14:06:34;;;;;;;10.50;2.30;;;;;;;;;;5052848;28;20287;-84
2022/11/02 14:09:03;;;;;;;13.57;2.75;;;;;;;;;;5053639;28;20727;-84
2022/11/02 14:11:45;;;;;;;9.23;1.92;;;;;;;;;;5053432;28;20262;-84
2022/11/02 14:14:17;;;;;;;10.00;2.75;;;;;;;;;;5052566;28;20290;-84
2022/11/02 14:16:46;;;;;;;11.23;2.55;;;;;;;;;;5051259;28;20246;-84
2022/11/02 14:19:26;;;;;;;14.23;2.58;;;;;;;;;;5052904;28;20227;-83
2022/11/02 14:22:13;;;;;;;11.07;2.72;;;;;;;;;;5052994;28;20616;-85
2022/11/02 14:24:56;;;;;;;12.85;2.40;;;;;;;;;;5047256;28;21748;-84
2022/11/02 14:27:29;;;;;;;14.15;2.67;;;;;;;;;;5052963;28;20208;-84
2022/11/02 14:29:57;;;;;;;13.25;3.03;;;;;;;;;;5052800;28;20231;-84
2022/11/02 14:32:40;;;;;;;14.23;2.85;;;;;;;;;;5048246;28;20224;-83
2022/11/02 14:35:25;;;;;;;14.77;2.58;;;;;;;;;;5049321;28;20598;-85
2022/11/02 14:37:59;;;;;;;13.10;2.75;;;;;;;;;;5051825;28;20894;-85
2022/11/02 14:40:29;;;;;;;10.98;2.80;;;;;;;;;;5048209;28;20199;-85
2022/11/02 14:43:08;;;;;;;14.27;2.65;;;;;;;;;;5051602;28;20219;-84
2022/11/02 14:45:53;;;;;;;15.85;2.92;;;;;;;;;;5048533;28;20915;-85
2022/11/02 14:48:22;;;;;;;15.77;2.83;;;;;;;;;;5050900;28;20278;-84
2022/11/02 14:51:02;;;;;;;15.75;3.30;;;;;;;;;;5051596;28;20733;-86
2022/11/02 14:53:32;;;;;;;8.15;2.70;;;;;;;;;;5051235;28;20751;-86
2022/11/02 14:56:00;;;;;;;8.45;2.50;;;;;;;;;;5052057;28;20247;-87
2022/11/02 14:58:33;;;;;;;11.63;2.55;;;;;;;;;;5051607;28;20196;-86
2022/11/02 15:01:01;;;;;;;12.35;2.55;;;;;;;;;;5047713;28;20245;-87